sensor_id;sensor_type;location;lat;lon;timestamp;P1;durP1;ratioP1;P2;durP2;ratioP2
15516;SDS011;7860;52.030;5.572;2022-10-20T00:02:39;11.99;;;5.33;;
15516;SDS011;7860;52.030;5.572;2022-10-20T00:02:39;11.03;;;5.37;;
15516;SDS011;7860;52.030;5.572;2022-10-20T00:02:39;10.20;;;4.79;;
15516;SDS011;7860;52.030;5.572;2022-10-20T00:03:37;10.28;;;5.18;;
15516;SDS011;7860;52.030;5.572;2022-10-20T00:04:37;13.12;;;5.54;;
15516;SDS011;7860;52.030;5.572;2022-10-20T00:05:37;9.43;;;5.10;;
15516;SDS011;7860;52.030;5.572;2022-10-20T00:06:37;9.68;;;5.51;;
15516;SDS011;7860;52.030;5.572;2022-10-20T00:07:38;10.55;;;5.23;;
15516;SDS011;7860;52.030;5.572;2022-10-20T00:08:39;13.20;;;5.35;;
15516;SDS011;7860;52.030;5.572;2022-10-20T00:09:39;9.34;;;5.31;;
15516;SDS011;7860;52.030;5.572;2022-10-20T00:10:39;9.87;;;5.25;;
15516;SDS011;7860;52.030;5.572;2022-10-20T00:11:39;10.14;;;5.02;;
15516;SDS011;7860;52.030;5.572;2022-10-20T00:12:40;13.32;;;5.41;;
15516;SDS011;7860;52.030;5.572;2022-10-20T00:13:41;10.30;;;4.99;;
15516;SDS011;7860;52.030;5.572;2022-10-20T00:14:40;10.48;;;4.86;;
15516;SDS011;7860;52.030;5.572;2022-10-20T00:15:46;9.45;;;5.05;;
15516;SDS011;7860;52.030;5.572;2022-10-20T00:16:41;11.28;;;5.29;;
15516;SDS011;7860;52.030;5.572;2022-10-20T00:17:42;11.12;;;5.31;;
15516;SDS011;7860;52.030;5.572;2022-10-20T00:18:42;11.33;;;5.30;;
15516;SDS011;7860;52.030;5.572;2022-10-20T00:19:45;11.73;;;5.31;;
15516;SDS011;7860;52.030;5.572;2022-10-20T00:20:43;12.69;;;5.40;;
15516;SDS011;7860;52.030;5.572;2022-10-20T00:21:44;10.46;;;5.16;;
15516;SDS011;7860;52.030;5.572;2022-10-20T00:22:44;11.77;;;5.27;;
15516;SDS011;7860;52.030;5.572;2022-10-20T00:23:45;11.02;;;5.27;;
15516;SDS011;7860;52.030;5.572;2022-10-20T00:24:45;10.01;;;5.09;;
15516;SDS011;7860;52.030;5.572;2022-10-20T00:25:46;10.74;;;5.10;;
15516;SDS011;7860;52.030;5.572;2022-10-20T00:26:46;10.18;;;5.19;;
15516;SDS011;7860;52.030;5.572;2022-10-20T00:27:47;11.36;;;5.19;;
15516;SDS011;7860;52.030;5.572;2022-10-20T00:28:47;11.13;;;5.03;;
15516;SDS011;7860;52.030;5.572;2022-10-20T00:29:48;10.60;;;5.51;;
15516;SDS011;7860;52.030;5.572;2022-10-20T00:30:48;11.35;;;5.46;;
15516;SDS011;7860;52.030;5.572;2022-10-20T00:31:49;12.20;;;5.25;;
15516;SDS011;7860;52.030;5.572;2022-10-20T00:32:49;9.11;;;5.06;;
15516;SDS011;7860;52.030;5.572;2022-10-20T00:33:49;11.67;;;4.98;;
15516;SDS011;7860;52.030;5.572;2022-10-20T00:34:50;9.10;;;5.19;;
15516;SDS011;7860;52.030;5.572;2022-10-20T00:35:50;9.45;;;5.38;;
15516;SDS011;7860;52.030;5.572;2022-10-20T00:36:50;9.94;;;4.97;;
15516;SDS011;7860;52.030;5.572;2022-10-20T00:37:51;10.46;;;5.41;;
15516;SDS011;7860;52.030;5.572;2022-10-20T00:38:55;10.29;;;5.97;;
15516;SDS011;7860;52.030;5.572;2022-10-20T00:39:51;10.28;;;5.72;;
15516;SDS011;7860;52.030;5.572;2022-10-20T00:40:52;12.87;;;5.78;;
15516;SDS011;7860;52.030;5.572;2022-10-20T00:41:52;11.85;;;5.65;;
15516;SDS011;7860;52.030;5.572;2022-10-20T00:42:53;10.41;;;5.25;;
15516;SDS011;7860;52.030;5.572;2022-10-20T00:43:54;11.10;;;5.77;;
15516;SDS011;7860;52.030;5.572;2022-10-20T00:44:55;9.99;;;5.48;;
15516;SDS011;7860;52.030;5.572;2022-10-20T00:45:54;10.39;;;5.82;;
15516;SDS011;7860;52.030;5.572;2022-10-20T00:46:55;11.41;;;6.03;;
15516;SDS011;7860;52.030;5.572;2022-10-20T00:47:56;11.24;;;5.71;;
15516;SDS011;7860;52.030;5.572;2022-10-20T00:48:56;11.05;;;5.93;;
15516;SDS011;7860;52.030;5.572;2022-10-20T00:49:56;11.49;;;5.82;;
15516;SDS011;7860;52.030;5.572;2022-10-20T00:50:56;11.12;;;5.69;;
15516;SDS011;7860;52.030;5.572;2022-10-20T00:51:56;11.42;;;5.63;;
15516;SDS011;7860;52.030;5.572;2022-10-20T00:52:57;10.77;;;5.55;;
15516;SDS011;7860;52.030;5.572;2022-10-20T00:53:58;11.44;;;5.76;;
15516;SDS011;7860;52.030;5.572;2022-10-20T00:54:57;10.75;;;5.56;;
15516;SDS011;7860;52.030;5.572;2022-10-20T00:55:58;10.22;;;5.89;;
15516;SDS011;7860;52.030;5.572;2022-10-20T00:56:58;10.60;;;5.45;;
15516;SDS011;7860;52.030;5.572;2022-10-20T00:57:59;10.82;;;5.95;;
15516;SDS011;7860;52.030;5.572;2022-10-20T00:58:59;9.46;;;5.65;;
15516;SDS011;7860;52.030;5.572;2022-10-20T01:00:00;10.18;;;5.70;;
15516;SDS011;7860;52.030;5.572;2022-10-20T01:01:00;12.34;;;5.81;;
15516;SDS011;7860;52.030;5.572;2022-10-20T01:02:00;9.74;;;5.43;;
15516;SDS011;7860;52.030;5.572;2022-10-20T01:03:00;13.90;;;5.70;;
15516;SDS011;7860;52.030;5.572;2022-10-20T01:04:00;10.64;;;5.56;;
15516;SDS011;7860;52.030;5.572;2022-10-20T01:05:02;14.17;;;6.07;;
15516;SDS011;7860;52.030;5.572;2022-10-20T01:06:02;11.29;;;6.31;;
15516;SDS011;7860;52.030;5.572;2022-10-20T01:07:01;9.84;;;5.71;;
15516;SDS011;7860;52.030;5.572;2022-10-20T01:08:01;15.44;;;6.11;;
15516;SDS011;7860;52.030;5.572;2022-10-20T01:09:02;12.17;;;6.42;;
15516;SDS011;7860;52.030;5.572;2022-10-20T01:10:03;11.95;;;6.31;;
15516;SDS011;7860;52.030;5.572;2022-10-20T01:11:05;11.56;;;5.95;;
15516;SDS011;7860;52.030;5.572;2022-10-20T01:12:05;11.37;;;6.45;;
15516;SDS011;7860;52.030;5.572;2022-10-20T01:13:05;11.50;;;6.35;;
15516;SDS011;7860;52.030;5.572;2022-10-20T01:14:07;12.36;;;6.40;;
15516;SDS011;7860;52.030;5.572;2022-10-20T01:15:06;13.44;;;7.15;;
15516;SDS011;7860;52.030;5.572;2022-10-20T01:16:08;13.00;;;6.93;;
15516;SDS011;7860;52.030;5.572;2022-10-20T01:17:07;13.51;;;7.14;;
15516;SDS011;7860;52.030;5.572;2022-10-20T01:18:07;11.58;;;6.59;;
15516;SDS011;7860;52.030;5.572;2022-10-20T01:19:11;13.51;;;6.79;;
15516;SDS011;7860;52.030;5.572;2022-10-20T01:20:11;11.17;;;6.93;;
15516;SDS011;7860;52.030;5.572;2022-10-20T01:21:12;11.50;;;6.68;;
15516;SDS011;7860;52.030;5.572;2022-10-20T01:22:10;13.51;;;6.88;;
15516;SDS011;7860;52.030;5.572;2022-10-20T01:24:20;11.91;;;7.08;;
15516;SDS011;7860;52.030;5.572;2022-10-20T01:25:14;11.54;;;7.18;;
15516;SDS011;7860;52.030;5.572;2022-10-20T01:26:22;11.57;;;6.78;;
15516;SDS011;7860;52.030;5.572;2022-10-20T01:27:26;10.96;;;6.85;;
15516;SDS011;7860;52.030;5.572;2022-10-20T01:28:09;11.96;;;6.89;;
15516;SDS011;7860;52.030;5.572;2022-10-20T01:29:11;11.80;;;6.83;;
15516;SDS011;7860;52.030;5.572;2022-10-20T01:30:11;13.12;;;7.46;;
15516;SDS011;7860;52.030;5.572;2022-10-20T01:31:11;11.83;;;7.19;;
15516;SDS011;7860;52.030;5.572;2022-10-20T01:32:13;12.57;;;7.17;;
15516;SDS011;7860;52.030;5.572;2022-10-20T01:33:13;12.69;;;6.90;;
15516;SDS011;7860;52.030;5.572;2022-10-20T01:34:12;12.97;;;7.31;;
15516;SDS011;7860;52.030;5.572;2022-10-20T01:35:12;14.20;;;7.32;;
15516;SDS011;7860;52.030;5.572;2022-10-20T01:36:12;13.25;;;7.26;;
15516;SDS011;7860;52.030;5.572;2022-10-20T01:37:13;13.86;;;7.52;;
15516;SDS011;7860;52.030;5.572;2022-10-20T01:38:14;12.89;;;6.87;;
15516;SDS011;7860;52.030;5.572;2022-10-20T01:39:14;11.66;;;7.37;;
15516;SDS011;7860;52.030;5.572;2022-10-20T01:40:15;16.26;;;7.57;;
15516;SDS011;7860;52.030;5.572;2022-10-20T01:41:16;12.63;;;7.73;;
15516;SDS011;7860;52.030;5.572;2022-10-20T01:42:15;11.87;;;7.44;;
15516;SDS011;7860;52.030;5.572;2022-10-20T01:43:15;13.22;;;7.47;;
15516;SDS011;7860;52.030;5.572;2022-10-20T01:44:15;12.33;;;7.58;;
15516;SDS011;7860;52.030;5.572;2022-10-20T01:45:16;11.83;;;7.04;;
15516;SDS011;7860;52.030;5.572;2022-10-20T01:46:16;12.73;;;7.14;;
15516;SDS011;7860;52.030;5.572;2022-10-20T01:47:16;14.18;;;7.50;;
15516;SDS011;7860;52.030;5.572;2022-10-20T01:48:16;13.05;;;7.58;;
15516;SDS011;7860;52.030;5.572;2022-10-20T01:49:17;14.22;;;7.59;;
15516;SDS011;7860;52.030;5.572;2022-10-20T01:50:17;13.16;;;7.46;;
15516;SDS011;7860;52.030;5.572;2022-10-20T01:51:17;12.24;;;7.34;;
15516;SDS011;7860;52.030;5.572;2022-10-20T01:52:18;11.17;;;7.07;;
15516;SDS011;7860;52.030;5.572;2022-10-20T01:53:18;14.40;;;7.77;;
15516;SDS011;7860;52.030;5.572;2022-10-20T01:54:19;11.92;;;7.44;;
15516;SDS011;7860;52.030;5.572;2022-10-20T01:55:19;13.95;;;7.59;;
15516;SDS011;7860;52.030;5.572;2022-10-20T01:56:25;12.16;;;7.63;;
15516;SDS011;7860;52.030;5.572;2022-10-20T01:57:24;14.07;;;7.43;;
15516;SDS011;7860;52.030;5.572;2022-10-20T01:58:24;12.60;;;7.57;;
15516;SDS011;7860;52.030;5.572;2022-10-20T01:59:24;15.79;;;7.82;;
15516;SDS011;7860;52.030;5.572;2022-10-20T02:00:21;12.56;;;7.86;;
15516;SDS011;7860;52.030;5.572;2022-10-20T02:01:24;12.39;;;7.56;;
15516;SDS011;7860;52.030;5.572;2022-10-20T02:02:29;15.77;;;7.79;;
15516;SDS011;7860;52.030;5.572;2022-10-20T02:03:25;12.43;;;7.67;;
15516;SDS011;7860;52.030;5.572;2022-10-20T02:04:23;13.07;;;7.38;;
15516;SDS011;7860;52.030;5.572;2022-10-20T02:05:26;13.44;;;7.81;;
15516;SDS011;7860;52.030;5.572;2022-10-20T02:06:28;12.80;;;8.08;;
15516;SDS011;7860;52.030;5.572;2022-10-20T02:07:25;13.83;;;7.88;;
15516;SDS011;7860;52.030;5.572;2022-10-20T02:08:26;13.07;;;7.54;;
15516;SDS011;7860;52.030;5.572;2022-10-20T02:09:26;15.39;;;7.66;;
15516;SDS011;7860;52.030;5.572;2022-10-20T02:10:26;13.30;;;7.58;;
15516;SDS011;7860;52.030;5.572;2022-10-20T02:11:29;12.44;;;8.21;;
15516;SDS011;7860;52.030;5.572;2022-10-20T02:12:26;13.63;;;7.79;;
15516;SDS011;7860;52.030;5.572;2022-10-20T02:13:26;12.96;;;7.82;;
15516;SDS011;7860;52.030;5.572;2022-10-20T02:14:26;14.42;;;7.83;;
15516;SDS011;7860;52.030;5.572;2022-10-20T02:15:26;13.50;;;7.72;;
15516;SDS011;7860;52.030;5.572;2022-10-20T02:16:28;13.29;;;7.78;;
15516;SDS011;7860;52.030;5.572;2022-10-20T02:17:26;13.76;;;7.76;;
15516;SDS011;7860;52.030;5.572;2022-10-20T02:18:29;14.33;;;8.09;;
15516;SDS011;7860;52.030;5.572;2022-10-20T02:19:30;15.48;;;7.77;;
15516;SDS011;7860;52.030;5.572;2022-10-20T02:20:29;13.48;;;8.07;;
15516;SDS011;7860;52.030;5.572;2022-10-20T02:21:29;13.99;;;8.31;;
15516;SDS011;7860;52.030;5.572;2022-10-20T02:22:29;14.04;;;8.28;;
15516;SDS011;7860;52.030;5.572;2022-10-20T02:23:30;13.50;;;7.87;;
15516;SDS011;7860;52.030;5.572;2022-10-20T02:24:31;12.13;;;7.68;;
15516;SDS011;7860;52.030;5.572;2022-10-20T02:25:30;15.28;;;7.63;;
15516;SDS011;7860;52.030;5.572;2022-10-20T02:26:31;14.36;;;8.03;;
15516;SDS011;7860;52.030;5.572;2022-10-20T02:27:32;12.80;;;7.96;;
15516;SDS011;7860;52.030;5.572;2022-10-20T02:28:31;13.82;;;8.09;;
15516;SDS011;7860;52.030;5.572;2022-10-20T02:29:33;12.93;;;8.04;;
15516;SDS011;7860;52.030;5.572;2022-10-20T02:30:32;14.04;;;8.03;;
15516;SDS011;7860;52.030;5.572;2022-10-20T02:31:32;14.01;;;8.34;;
15516;SDS011;7860;52.030;5.572;2022-10-20T02:32:34;17.46;;;8.29;;
15516;SDS011;7860;52.030;5.572;2022-10-20T02:33:33;13.68;;;8.05;;
15516;SDS011;7860;52.030;5.572;2022-10-20T02:34:33;15.02;;;8.58;;
15516;SDS011;7860;52.030;5.572;2022-10-20T02:35:33;15.75;;;8.61;;
15516;SDS011;7860;52.030;5.572;2022-10-20T02:36:36;14.53;;;8.26;;
15516;SDS011;7860;52.030;5.572;2022-10-20T02:37:34;15.90;;;8.71;;
15516;SDS011;7860;52.030;5.572;2022-10-20T02:38:34;13.28;;;8.33;;
15516;SDS011;7860;52.030;5.572;2022-10-20T02:39:35;13.52;;;8.24;;
15516;SDS011;7860;52.030;5.572;2022-10-20T02:40:35;12.33;;;8.40;;
15516;SDS011;7860;52.030;5.572;2022-10-20T02:41:36;13.98;;;8.16;;
15516;SDS011;7860;52.030;5.572;2022-10-20T02:42:36;13.58;;;8.28;;
15516;SDS011;7860;52.030;5.572;2022-10-20T02:43:36;14.93;;;8.51;;
15516;SDS011;7860;52.030;5.572;2022-10-20T02:44:37;14.27;;;8.49;;
15516;SDS011;7860;52.030;5.572;2022-10-20T02:45:37;14.13;;;8.29;;
15516;SDS011;7860;52.030;5.572;2022-10-20T02:46:38;14.23;;;8.61;;
15516;SDS011;7860;52.030;5.572;2022-10-20T02:47:39;12.64;;;8.29;;
15516;SDS011;7860;52.030;5.572;2022-10-20T02:48:39;16.11;;;8.49;;
15516;SDS011;7860;52.030;5.572;2022-10-20T02:49:39;18.52;;;9.34;;
15516;SDS011;7860;52.030;5.572;2022-10-20T02:50:40;13.24;;;8.40;;
15516;SDS011;7860;52.030;5.572;2022-10-20T02:51:40;14.43;;;8.08;;
15516;SDS011;7860;52.030;5.572;2022-10-20T02:52:41;15.35;;;8.21;;
15516;SDS011;7860;52.030;5.572;2022-10-20T02:53:42;12.68;;;7.76;;
15516;SDS011;7860;52.030;5.572;2022-10-20T02:54:42;12.80;;;7.53;;
15516;SDS011;7860;52.030;5.572;2022-10-20T02:55:43;12.23;;;7.54;;
15516;SDS011;7860;52.030;5.572;2022-10-20T02:56:43;15.22;;;7.47;;
15516;SDS011;7860;52.030;5.572;2022-10-20T02:57:43;13.09;;;7.25;;
15516;SDS011;7860;52.030;5.572;2022-10-20T02:58:43;12.85;;;7.44;;
15516;SDS011;7860;52.030;5.572;2022-10-20T02:59:44;13.70;;;7.95;;
15516;SDS011;7860;52.030;5.572;2022-10-20T03:00:44;13.61;;;7.73;;
15516;SDS011;7860;52.030;5.572;2022-10-20T03:01:45;14.23;;;8.38;;
15516;SDS011;7860;52.030;5.572;2022-10-20T03:02:45;12.07;;;7.92;;
15516;SDS011;7860;52.030;5.572;2022-10-20T03:03:45;13.98;;;7.91;;
15516;SDS011;7860;52.030;5.572;2022-10-20T03:04:46;13.13;;;8.38;;
15516;SDS011;7860;52.030;5.572;2022-10-20T03:05:46;13.88;;;8.43;;
15516;SDS011;7860;52.030;5.572;2022-10-20T03:06:46;15.47;;;8.66;;
15516;SDS011;7860;52.030;5.572;2022-10-20T03:07:46;13.13;;;8.26;;
15516;SDS011;7860;52.030;5.572;2022-10-20T03:08:47;15.19;;;8.52;;
15516;SDS011;7860;52.030;5.572;2022-10-20T03:09:47;14.13;;;8.49;;
15516;SDS011;7860;52.030;5.572;2022-10-20T03:10:48;13.72;;;8.55;;
15516;SDS011;7860;52.030;5.572;2022-10-20T03:11:48;12.52;;;8.33;;
15516;SDS011;7860;52.030;5.572;2022-10-20T03:12:49;15.64;;;8.78;;
15516;SDS011;7860;52.030;5.572;2022-10-20T03:13:49;13.52;;;9.01;;
15516;SDS011;7860;52.030;5.572;2022-10-20T03:14:50;14.65;;;8.35;;
15516;SDS011;7860;52.030;5.572;2022-10-20T03:15:50;13.95;;;8.15;;
15516;SDS011;7860;52.030;5.572;2022-10-20T03:16:51;15.51;;;8.29;;
15516;SDS011;7860;52.030;5.572;2022-10-20T03:17:51;13.01;;;8.47;;
15516;SDS011;7860;52.030;5.572;2022-10-20T03:18:52;15.30;;;8.62;;
15516;SDS011;7860;52.030;5.572;2022-10-20T03:19:52;16.83;;;8.61;;
15516;SDS011;7860;52.030;5.572;2022-10-20T03:20:53;14.08;;;8.60;;
15516;SDS011;7860;52.030;5.572;2022-10-20T03:21:53;14.07;;;8.36;;
15516;SDS011;7860;52.030;5.572;2022-10-20T03:22:53;14.93;;;8.45;;
15516;SDS011;7860;52.030;5.572;2022-10-20T03:23:53;13.68;;;8.42;;
15516;SDS011;7860;52.030;5.572;2022-10-20T03:24:54;14.17;;;8.25;;
15516;SDS011;7860;52.030;5.572;2022-10-20T03:25:59;13.12;;;8.33;;
15516;SDS011;7860;52.030;5.572;2022-10-20T03:26:55;11.93;;;8.28;;
15516;SDS011;7860;52.030;5.572;2022-10-20T03:27:55;14.28;;;8.65;;
15516;SDS011;7860;52.030;5.572;2022-10-20T03:28:55;15.73;;;8.64;;
15516;SDS011;7860;52.030;5.572;2022-10-20T03:29:56;13.86;;;8.27;;
15516;SDS011;7860;52.030;5.572;2022-10-20T03:30:56;14.08;;;8.25;;
15516;SDS011;7860;52.030;5.572;2022-10-20T03:31:56;15.98;;;8.66;;
15516;SDS011;7860;52.030;5.572;2022-10-20T03:32:57;14.51;;;8.47;;
15516;SDS011;7860;52.030;5.572;2022-10-20T03:33:57;13.33;;;8.27;;
15516;SDS011;7860;52.030;5.572;2022-10-20T03:34:58;13.52;;;8.07;;
15516;SDS011;7860;52.030;5.572;2022-10-20T03:35:58;13.35;;;8.78;;
15516;SDS011;7860;52.030;5.572;2022-10-20T03:36:59;15.00;;;8.24;;
15516;SDS011;7860;52.030;5.572;2022-10-20T03:38:00;14.81;;;8.29;;
15516;SDS011;7860;52.030;5.572;2022-10-20T03:39:00;13.07;;;8.12;;
15516;SDS011;7860;52.030;5.572;2022-10-20T03:40:00;14.01;;;8.59;;
15516;SDS011;7860;52.030;5.572;2022-10-20T03:41:01;14.37;;;8.57;;
15516;SDS011;7860;52.030;5.572;2022-10-20T03:42:01;15.32;;;8.52;;
15516;SDS011;7860;52.030;5.572;2022-10-20T03:43:02;14.60;;;8.35;;
15516;SDS011;7860;52.030;5.572;2022-10-20T03:44:02;14.59;;;8.59;;
15516;SDS011;7860;52.030;5.572;2022-10-20T03:45:04;16.18;;;8.81;;
15516;SDS011;7860;52.030;5.572;2022-10-20T03:46:04;13.95;;;8.47;;
15516;SDS011;7860;52.030;5.572;2022-10-20T03:47:03;13.80;;;8.61;;
15516;SDS011;7860;52.030;5.572;2022-10-20T03:48:04;14.41;;;8.42;;
15516;SDS011;7860;52.030;5.572;2022-10-20T03:49:04;12.38;;;8.23;;
15516;SDS011;7860;52.030;5.572;2022-10-20T03:50:05;16.21;;;8.76;;
15516;SDS011;7860;52.030;5.572;2022-10-20T03:51:05;14.95;;;8.38;;
15516;SDS011;7860;52.030;5.572;2022-10-20T03:52:05;13.71;;;8.70;;
15516;SDS011;7860;52.030;5.572;2022-10-20T03:53:06;13.89;;;8.94;;
15516;SDS011;7860;52.030;5.572;2022-10-20T03:54:06;14.26;;;8.49;;
15516;SDS011;7860;52.030;5.572;2022-10-20T03:55:08;14.12;;;8.18;;
15516;SDS011;7860;52.030;5.572;2022-10-20T03:56:08;14.96;;;8.61;;
15516;SDS011;7860;52.030;5.572;2022-10-20T03:57:08;14.05;;;8.25;;
15516;SDS011;7860;52.030;5.572;2022-10-20T03:58:08;15.42;;;8.29;;
15516;SDS011;7860;52.030;5.572;2022-10-20T03:59:09;14.95;;;8.59;;
15516;SDS011;7860;52.030;5.572;2022-10-20T04:00:10;13.89;;;8.41;;
15516;SDS011;7860;52.030;5.572;2022-10-20T04:01:10;15.33;;;8.54;;
15516;SDS011;7860;52.030;5.572;2022-10-20T04:02:12;13.68;;;8.11;;
15516;SDS011;7860;52.030;5.572;2022-10-20T04:03:10;13.74;;;8.25;;
15516;SDS011;7860;52.030;5.572;2022-10-20T04:04:10;13.11;;;8.60;;
15516;SDS011;7860;52.030;5.572;2022-10-20T04:05:11;14.09;;;8.48;;
15516;SDS011;7860;52.030;5.572;2022-10-20T04:06:12;14.76;;;8.79;;
15516;SDS011;7860;52.030;5.572;2022-10-20T04:07:11;12.93;;;8.11;;
15516;SDS011;7860;52.030;5.572;2022-10-20T04:08:11;15.37;;;9.01;;
15516;SDS011;7860;52.030;5.572;2022-10-20T04:09:12;14.67;;;8.89;;
15516;SDS011;7860;52.030;5.572;2022-10-20T04:10:14;14.84;;;8.70;;
15516;SDS011;7860;52.030;5.572;2022-10-20T04:11:13;14.09;;;8.28;;
15516;SDS011;7860;52.030;5.572;2022-10-20T04:12:13;14.87;;;8.64;;
15516;SDS011;7860;52.030;5.572;2022-10-20T04:13:13;13.73;;;8.55;;
15516;SDS011;7860;52.030;5.572;2022-10-20T04:14:14;13.75;;;8.75;;
15516;SDS011;7860;52.030;5.572;2022-10-20T04:15:14;14.15;;;8.72;;
15516;SDS011;7860;52.030;5.572;2022-10-20T04:16:14;15.66;;;8.97;;
15516;SDS011;7860;52.030;5.572;2022-10-20T04:17:14;15.25;;;9.07;;
15516;SDS011;7860;52.030;5.572;2022-10-20T04:18:14;14.90;;;9.30;;
15516;SDS011;7860;52.030;5.572;2022-10-20T04:19:15;14.11;;;9.19;;
15516;SDS011;7860;52.030;5.572;2022-10-20T04:20:16;13.89;;;8.98;;
15516;SDS011;7860;52.030;5.572;2022-10-20T04:21:16;15.25;;;8.66;;
15516;SDS011;7860;52.030;5.572;2022-10-20T04:22:16;12.84;;;8.83;;
15516;SDS011;7860;52.030;5.572;2022-10-20T04:23:16;13.66;;;8.80;;
15516;SDS011;7860;52.030;5.572;2022-10-20T04:24:16;15.17;;;9.12;;
15516;SDS011;7860;52.030;5.572;2022-10-20T04:25:17;14.00;;;9.10;;
15516;SDS011;7860;52.030;5.572;2022-10-20T04:26:17;14.63;;;8.50;;
15516;SDS011;7860;52.030;5.572;2022-10-20T04:27:17;15.73;;;9.12;;
15516;SDS011;7860;52.030;5.572;2022-10-20T04:28:18;14.23;;;8.87;;
15516;SDS011;7860;52.030;5.572;2022-10-20T04:29:18;13.66;;;9.03;;
15516;SDS011;7860;52.030;5.572;2022-10-20T04:30:18;14.80;;;9.45;;
15516;SDS011;7860;52.030;5.572;2022-10-20T04:31:19;13.40;;;8.73;;
15516;SDS011;7860;52.030;5.572;2022-10-20T04:32:19;13.89;;;9.02;;
15516;SDS011;7860;52.030;5.572;2022-10-20T04:33:20;14.50;;;9.39;;
15516;SDS011;7860;52.030;5.572;2022-10-20T04:34:20;16.98;;;9.09;;
15516;SDS011;7860;52.030;5.572;2022-10-20T04:35:20;14.87;;;8.77;;
15516;SDS011;7860;52.030;5.572;2022-10-20T04:36:20;14.46;;;8.77;;
15516;SDS011;7860;52.030;5.572;2022-10-20T04:37:21;14.64;;;9.12;;
15516;SDS011;7860;52.030;5.572;2022-10-20T04:38:22;14.01;;;9.23;;
15516;SDS011;7860;52.030;5.572;2022-10-20T04:39:22;15.02;;;9.48;;
15516;SDS011;7860;52.030;5.572;2022-10-20T04:40:22;14.50;;;9.36;;
15516;SDS011;7860;52.030;5.572;2022-10-20T04:41:22;16.13;;;8.87;;
15516;SDS011;7860;52.030;5.572;2022-10-20T04:42:23;15.23;;;9.06;;
15516;SDS011;7860;52.030;5.572;2022-10-20T04:43:23;17.01;;;9.46;;
15516;SDS011;7860;52.030;5.572;2022-10-20T04:44:24;16.73;;;9.40;;
15516;SDS011;7860;52.030;5.572;2022-10-20T04:45:24;15.19;;;9.52;;
15516;SDS011;7860;52.030;5.572;2022-10-20T04:46:25;14.30;;;9.27;;
15516;SDS011;7860;52.030;5.572;2022-10-20T04:47:25;16.40;;;9.35;;
15516;SDS011;7860;52.030;5.572;2022-10-20T04:48:25;15.27;;;9.44;;
15516;SDS011;7860;52.030;5.572;2022-10-20T04:49:26;14.51;;;9.21;;
15516;SDS011;7860;52.030;5.572;2022-10-20T04:50:26;17.10;;;9.73;;
15516;SDS011;7860;52.030;5.572;2022-10-20T04:51:27;14.91;;;9.62;;
15516;SDS011;7860;52.030;5.572;2022-10-20T04:52:27;13.92;;;8.74;;
15516;SDS011;7860;52.030;5.572;2022-10-20T04:53:27;18.92;;;8.91;;
15516;SDS011;7860;52.030;5.572;2022-10-20T04:54:27;15.51;;;9.22;;
15516;SDS011;7860;52.030;5.572;2022-10-20T04:55:28;15.47;;;8.67;;
15516;SDS011;7860;52.030;5.572;2022-10-20T04:56:28;13.59;;;9.19;;
15516;SDS011;7860;52.030;5.572;2022-10-20T04:57:29;15.08;;;9.03;;
15516;SDS011;7860;52.030;5.572;2022-10-20T04:58:29;12.94;;;8.91;;
15516;SDS011;7860;52.030;5.572;2022-10-20T04:59:30;15.54;;;9.28;;
15516;SDS011;7860;52.030;5.572;2022-10-20T05:00:30;15.78;;;9.40;;
15516;SDS011;7860;52.030;5.572;2022-10-20T05:01:30;15.12;;;9.09;;
15516;SDS011;7860;52.030;5.572;2022-10-20T05:02:31;14.18;;;8.89;;
15516;SDS011;7860;52.030;5.572;2022-10-20T05:03:31;15.62;;;9.24;;
15516;SDS011;7860;52.030;5.572;2022-10-20T05:04:31;14.68;;;8.91;;
15516;SDS011;7860;52.030;5.572;2022-10-20T05:05:32;14.03;;;8.55;;
15516;SDS011;7860;52.030;5.572;2022-10-20T05:06:32;15.04;;;9.23;;
15516;SDS011;7860;52.030;5.572;2022-10-20T05:07:33;14.02;;;8.66;;
15516;SDS011;7860;52.030;5.572;2022-10-20T05:08:33;12.40;;;9.01;;
15516;SDS011;7860;52.030;5.572;2022-10-20T05:09:34;16.41;;;8.57;;
15516;SDS011;7860;52.030;5.572;2022-10-20T05:10:34;15.01;;;8.90;;
15516;SDS011;7860;52.030;5.572;2022-10-20T05:11:35;15.29;;;8.71;;
15516;SDS011;7860;52.030;5.572;2022-10-20T05:12:35;17.50;;;8.48;;
15516;SDS011;7860;52.030;5.572;2022-10-20T05:13:35;14.05;;;8.70;;
15516;SDS011;7860;52.030;5.572;2022-10-20T05:14:36;16.44;;;8.94;;
15516;SDS011;7860;52.030;5.572;2022-10-20T05:15:36;14.21;;;8.62;;
15516;SDS011;7860;52.030;5.572;2022-10-20T05:16:37;15.80;;;9.12;;
15516;SDS011;7860;52.030;5.572;2022-10-20T05:17:37;13.85;;;8.20;;
15516;SDS011;7860;52.030;5.572;2022-10-20T05:18:38;14.92;;;8.29;;
15516;SDS011;7860;52.030;5.572;2022-10-20T05:19:38;14.38;;;8.60;;
15516;SDS011;7860;52.030;5.572;2022-10-20T05:20:38;15.43;;;8.86;;
15516;SDS011;7860;52.030;5.572;2022-10-20T05:21:39;15.34;;;8.66;;
15516;SDS011;7860;52.030;5.572;2022-10-20T05:22:39;17.52;;;8.59;;
15516;SDS011;7860;52.030;5.572;2022-10-20T05:23:40;15.54;;;8.61;;
15516;SDS011;7860;52.030;5.572;2022-10-20T05:24:40;13.61;;;8.60;;
15516;SDS011;7860;52.030;5.572;2022-10-20T05:25:40;15.19;;;8.66;;
15516;SDS011;7860;52.030;5.572;2022-10-20T05:26:41;15.36;;;8.88;;
15516;SDS011;7860;52.030;5.572;2022-10-20T05:27:41;17.42;;;8.45;;
15516;SDS011;7860;52.030;5.572;2022-10-20T05:28:42;14.48;;;8.34;;
15516;SDS011;7860;52.030;5.572;2022-10-20T05:29:41;13.59;;;8.62;;
15516;SDS011;7860;52.030;5.572;2022-10-20T05:30:42;12.96;;;8.67;;
15516;SDS011;7860;52.030;5.572;2022-10-20T05:31:42;14.47;;;8.23;;
15516;SDS011;7860;52.030;5.572;2022-10-20T05:32:44;15.15;;;8.71;;
15516;SDS011;7860;52.030;5.572;2022-10-20T05:33:44;13.69;;;8.39;;
15516;SDS011;7860;52.030;5.572;2022-10-20T05:34:43;15.13;;;8.40;;
15516;SDS011;7860;52.030;5.572;2022-10-20T05:35:43;14.68;;;8.77;;
15516;SDS011;7860;52.030;5.572;2022-10-20T05:36:44;13.53;;;8.09;;
15516;SDS011;7860;52.030;5.572;2022-10-20T05:37:44;14.72;;;9.04;;
15516;SDS011;7860;52.030;5.572;2022-10-20T05:38:45;14.01;;;8.74;;
15516;SDS011;7860;52.030;5.572;2022-10-20T05:39:45;16.59;;;8.52;;
15516;SDS011;7860;52.030;5.572;2022-10-20T05:40:46;15.22;;;8.54;;
15516;SDS011;7860;52.030;5.572;2022-10-20T05:41:46;13.83;;;8.17;;
15516;SDS011;7860;52.030;5.572;2022-10-20T05:42:47;14.91;;;8.13;;
15516;SDS011;7860;52.030;5.572;2022-10-20T05:43:48;15.47;;;8.02;;
15516;SDS011;7860;52.030;5.572;2022-10-20T05:44:47;12.41;;;7.97;;
15516;SDS011;7860;52.030;5.572;2022-10-20T05:45:52;14.01;;;8.49;;
15516;SDS011;7860;52.030;5.572;2022-10-20T05:46:47;15.74;;;8.66;;
15516;SDS011;7860;52.030;5.572;2022-10-20T05:47:47;14.32;;;8.25;;
15516;SDS011;7860;52.030;5.572;2022-10-20T05:48:47;16.18;;;8.50;;
15516;SDS011;7860;52.030;5.572;2022-10-20T05:49:47;13.66;;;7.86;;
15516;SDS011;7860;52.030;5.572;2022-10-20T05:50:48;13.79;;;8.75;;
15516;SDS011;7860;52.030;5.572;2022-10-20T05:51:49;13.35;;;8.16;;
15516;SDS011;7860;52.030;5.572;2022-10-20T05:52:49;13.21;;;8.18;;
15516;SDS011;7860;52.030;5.572;2022-10-20T05:53:49;16.85;;;8.51;;
15516;SDS011;7860;52.030;5.572;2022-10-20T05:54:49;16.53;;;8.38;;
15516;SDS011;7860;52.030;5.572;2022-10-20T05:55:50;13.44;;;8.12;;
15516;SDS011;7860;52.030;5.572;2022-10-20T05:56:50;14.31;;;8.57;;
15516;SDS011;7860;52.030;5.572;2022-10-20T05:57:51;16.32;;;8.76;;
15516;SDS011;7860;52.030;5.572;2022-10-20T05:58:50;13.95;;;8.80;;
15516;SDS011;7860;52.030;5.572;2022-10-20T05:59:50;15.08;;;8.95;;
15516;SDS011;7860;52.030;5.572;2022-10-20T06:00:50;15.05;;;9.16;;
15516;SDS011;7860;52.030;5.572;2022-10-20T06:01:50;16.79;;;9.17;;
15516;SDS011;7860;52.030;5.572;2022-10-20T06:02:52;14.78;;;8.68;;
15516;SDS011;7860;52.030;5.572;2022-10-20T06:03:51;16.14;;;8.68;;
15516;SDS011;7860;52.030;5.572;2022-10-20T06:04:51;15.08;;;9.23;;